alesis.com alexa rank chart, alesis.com alexa rank daily changes

alesis.com alexa rank chart, alesis.com alexa rank daily changes

alesis.com
Actual rank:
120 610

RANK HISTORY

Date Rank Diff
2017/10/20 120 610 -2 498
2017/10/19 123 108 +1 429
2017/10/18 121 679 -643
2017/10/17 122 322 -400
2017/10/16 122 722 +1 333
2017/10/14 121 389 -682
2017/10/13 122 071 -671
2017/10/12 122 742 +1 878
2017/10/11 120 864 -755
2017/10/10 121 619 -6 120
2017/10/09 127 739 -2 778
2017/10/08 130 517 -789
2017/10/07 131 306 -2 030
2017/10/06 133 336 -2 821
2017/10/05 136 157 -1 467
2017/10/04 137 624 +710
2017/10/03 136 914 +2 569
2017/10/02 134 345 -2 080
2017/10/01 136 425 +3 744
2017/09/30 132 681 +822
2017/09/29 131 859 +508
2017/09/28 131 351 -1 083
2017/09/27 132 434 +4 913
2017/09/26 127 521 -2 639
2017/09/25 130 160 +423
2017/09/24 129 737 +2 193
2017/09/23 127 544 +3 628
2017/09/22 123 916 +1 591
2017/09/20 122 325 +1 563
2017/09/19 120 762 -4 137
2017/09/18 124 899 +498
2017/09/17 124 401 -1 296
2017/09/16 125 697 +1 534
2017/09/15 124 163 -1 494
2017/09/14 125 657 +3 516
2017/09/13 122 141 +1 152
2017/09/12 120 989 +705
2017/09/11 120 284 +1 988
2017/09/10 118 296 +49
2017/09/09 118 247 +2 188
2017/09/08 116 059 +614
2017/09/07 115 445 +2 416
2017/09/06 113 029 +1 810
2017/09/05 111 219 +651
2017/09/04 110 568 -1 128
2017/09/03 111 696 -937
2017/09/02 112 633 -529
2017/09/01 113 162 -130
2017/08/31 113 292 +105
2017/08/30 113 187 -310
2017/08/29 113 497 +1 454
2017/08/28 112 043 -816
2017/08/27 112 859 -2 445
2017/08/26 115 304 +1 928
2017/08/25 113 376 +531
2017/08/24 112 845 -529
2017/08/23 113 374 +7
2017/08/22 113 367 -2 187
2017/08/21 115 554

WIDGET FOR YOUR SITE

DOMAINS WITH THE NEAREST RANK

Domain Rank
zspeeder.com 120 605
sizmek.com 120 606
disneyhotels.jp 120 607
alve.com 120 608
21stcenturywire.com 120 609
alesis.com 120 610
bethel.tv 120 611
theepoch.com 120 612
mall.hr 120 613
shoppingexpress.com.au 120 614
americanoutlet.pl 120 615

DOMAINS WITH THE NEAREST RANK BY TLD .com

Domain Rank
2adultflashgames.com 120 602
zspeeder.com 120 605
sizmek.com 120 606
alve.com 120 608
21stcenturywire.com 120 609
alesis.com 120 610
theepoch.com 120 612
apkmos.com 120 618
masrawe-b.com 120 619
wantedbabes.com 120 623
oncurtv.com 120 625